sensor_id;sensor_type;location;lat;lon;timestamp;P1;durP1;ratioP1;P2;durP2;ratioP2
45792;SDS011;31495;42.740;22.908;2024-03-02T20:09:24;56.15;;;30.83;;
45792;SDS011;31495;42.740;22.908;2024-03-02T20:10:23;45.83;;;28.52;;
45792;SDS011;31495;42.740;22.908;2024-03-02T20:11:23;68.38;;;35.92;;
45792;SDS011;31495;42.740;22.908;2024-03-02T20:12:22;64.65;;;35.72;;
45792;SDS011;31495;42.740;22.908;2024-03-02T20:13:22;84.57;;;46.90;;
45792;SDS011;31495;42.740;22.908;2024-03-02T20:14:22;80.55;;;46.83;;
45792;SDS011;31495;42.740;22.908;2024-03-02T20:15:22;90.47;;;52.85;;
45792;SDS011;31495;42.740;22.908;2024-03-02T20:16:22;117.00;;;66.55;;
45792;SDS011;31495;42.740;22.908;2024-03-02T20:17:21;136.82;;;80.18;;
45792;SDS011;31495;42.740;22.908;2024-03-02T20:18:21;86.55;;;53.03;;
45792;SDS011;31495;42.740;22.908;2024-03-02T20:19:20;67.70;;;38.40;;
45792;SDS011;31495;42.740;22.908;2024-03-02T20:20:21;47.70;;;29.77;;
45792;SDS011;31495;42.740;22.908;2024-03-02T20:21:21;40.38;;;26.92;;
45792;SDS011;31495;42.740;22.908;2024-03-02T20:22:21;40.78;;;25.33;;
45792;SDS011;31495;42.740;22.908;2024-03-02T20:23:20;33.40;;;22.10;;
45792;SDS011;31495;42.740;22.908;2024-03-02T20:24:20;33.83;;;21.75;;
45792;SDS011;31495;42.740;22.908;2024-03-02T20:25:20;31.48;;;20.65;;
45792;SDS011;31495;42.740;22.908;2024-03-02T20:26:20;40.63;;;25.10;;
45792;SDS011;31495;42.740;22.908;2024-03-02T20:27:20;37.38;;;25.48;;
45792;SDS011;31495;42.740;22.908;2024-03-02T20:28:20;31.80;;;21.98;;
45792;SDS011;31495;42.740;22.908;2024-03-02T20:29:20;27.02;;;17.77;;
45792;SDS011;31495;42.740;22.908;2024-03-02T20:30:19;27.85;;;17.80;;
45792;SDS011;31495;42.740;22.908;2024-03-02T20:31:20;35.42;;;21.25;;
45792;SDS011;31495;42.740;22.908;2024-03-02T20:32:20;31.88;;;21.35;;
45792;SDS011;31495;42.740;22.908;2024-03-02T20:33:20;30.02;;;19.10;;
45792;SDS011;31495;42.740;22.908;2024-03-02T20:34:19;28.02;;;19.00;;
45792;SDS011;31495;42.740;22.908;2024-03-02T20:35:19;29.08;;;19.17;;
45792;SDS011;31495;42.740;22.908;2024-03-02T20:36:19;28.35;;;17.25;;
45792;SDS011;31495;42.740;22.908;2024-03-02T20:37:19;29.45;;;17.42;;
45792;SDS011;31495;42.740;22.908;2024-03-02T20:38:23;26.80;;;16.42;;
45792;SDS011;31495;42.740;22.908;2024-03-02T20:39:22;32.78;;;18.67;;
45792;SDS011;31495;42.740;22.908;2024-03-02T20:40:22;25.63;;;17.17;;
45792;SDS011;31495;42.740;22.908;2024-03-02T20:41:25;27.33;;;17.40;;
45792;SDS011;31495;42.740;22.908;2024-03-02T20:42:25;26.83;;;18.25;;
45792;SDS011;31495;42.740;22.908;2024-03-02T20:43:27;29.38;;;18.75;;
45792;SDS011;31495;42.740;22.908;2024-03-02T20:44:26;28.45;;;17.80;;
45792;SDS011;31495;42.740;22.908;2024-03-02T20:45:26;31.33;;;19.23;;
45792;SDS011;31495;42.740;22.908;2024-03-02T20:46:26;31.77;;;19.50;;
45792;SDS011;31495;42.740;22.908;2024-03-02T20:47:25;30.10;;;19.67;;
45792;SDS011;31495;42.740;22.908;2024-03-02T20:48:24;32.47;;;20.13;;
45792;SDS011;31495;42.740;22.908;2024-03-02T20:49:24;27.52;;;18.70;;
45792;SDS011;31495;42.740;22.908;2024-03-02T20:50:25;27.80;;;18.88;;
45792;SDS011;31495;42.740;22.908;2024-03-02T20:51:24;35.42;;;22.90;;
45792;SDS011;31495;42.740;22.908;2024-03-02T20:52:27;40.65;;;24.98;;
45792;SDS011;31495;42.740;22.908;2024-03-02T20:53:27;39.65;;;23.55;;
45792;SDS011;31495;42.740;22.908;2024-03-02T20:54:26;49.95;;;28.73;;
45792;SDS011;31495;42.740;22.908;2024-03-02T20:55:27;62.38;;;34.72;;
45792;SDS011;31495;42.740;22.908;2024-03-02T20:56:28;85.35;;;47.00;;
45792;SDS011;31495;42.740;22.908;2024-03-02T20:57:27;86.25;;;45.75;;
45792;SDS011;31495;42.740;22.908;2024-03-02T20:58:28;60.20;;;35.42;;
45792;SDS011;31495;42.740;22.908;2024-03-02T20:59:27;52.88;;;29.48;;
45792;SDS011;31495;42.740;22.908;2024-03-02T21:00:27;49.75;;;28.73;;
45792;SDS011;31495;42.740;22.908;2024-03-02T21:01:27;47.60;;;28.17;;
45792;SDS011;31495;42.740;22.908;2024-03-02T21:02:26;36.53;;;24.88;;
45792;SDS011;31495;42.740;22.908;2024-03-02T21:03:26;40.95;;;25.38;;
45792;SDS011;31495;42.740;22.908;2024-03-02T21:04:25;41.20;;;26.15;;
45792;SDS011;31495;42.740;22.908;2024-03-02T21:05:25;42.10;;;25.90;;
45792;SDS011;31495;42.740;22.908;2024-03-02T21:06:25;46.65;;;28.58;;
45792;SDS011;31495;42.740;22.908;2024-03-02T21:07:24;44.13;;;27.77;;
45792;SDS011;31495;42.740;22.908;2024-03-02T21:08:23;42.60;;;26.13;;
45792;SDS011;31495;42.740;22.908;2024-03-02T21:09:23;39.78;;;25.40;;
45792;SDS011;31495;42.740;22.908;2024-03-02T21:10:22;41.10;;;25.65;;
45792;SDS011;31495;42.740;22.908;2024-03-02T21:11:22;39.95;;;24.98;;
45792;SDS011;31495;42.740;22.908;2024-03-02T21:12:22;42.90;;;25.70;;
45792;SDS011;31495;42.740;22.908;2024-03-02T21:13:21;40.95;;;23.98;;
45792;SDS011;31495;42.740;22.908;2024-03-02T21:14:21;40.97;;;24.75;;
45792;SDS011;31495;42.740;22.908;2024-03-02T21:15:20;38.50;;;24.92;;
45792;SDS011;31495;42.740;22.908;2024-03-02T21:16:20;37.60;;;24.23;;
45792;SDS011;31495;42.740;22.908;2024-03-02T21:17:19;41.67;;;26.92;;
45792;SDS011;31495;42.740;22.908;2024-03-02T21:18:19;41.45;;;26.55;;
45792;SDS011;31495;42.740;22.908;2024-03-02T21:19:19;40.92;;;25.88;;
45792;SDS011;31495;42.740;22.908;2024-03-02T21:20:19;48.45;;;28.05;;
45792;SDS011;31495;42.740;22.908;2024-03-02T21:21:19;62.33;;;33.55;;
45792;SDS011;31495;42.740;22.908;2024-03-02T21:22:20;81.28;;;40.67;;
45792;SDS011;31495;42.740;22.908;2024-03-02T21:23:21;67.47;;;33.70;;
45792;SDS011;31495;42.740;22.908;2024-03-02T21:24:20;53.20;;;28.75;;
45792;SDS011;31495;42.740;22.908;2024-03-02T21:25:19;49.63;;;27.42;;
45792;SDS011;31495;42.740;22.908;2024-03-02T21:26:19;44.08;;;26.42;;
45792;SDS011;31495;42.740;22.908;2024-03-02T21:27:19;41.95;;;26.65;;
45792;SDS011;31495;42.740;22.908;2024-03-02T21:28:19;45.60;;;27.15;;
45792;SDS011;31495;42.740;22.908;2024-03-02T21:29:19;42.30;;;26.23;;
45792;SDS011;31495;42.740;22.908;2024-03-02T21:30:21;39.25;;;24.90;;
45792;SDS011;31495;42.740;22.908;2024-03-02T21:31:21;39.60;;;23.98;;
45792;SDS011;31495;42.740;22.908;2024-03-02T21:32:20;40.97;;;24.90;;
45792;SDS011;31495;42.740;22.908;2024-03-02T21:33:20;42.38;;;25.65;;
45792;SDS011;31495;42.740;22.908;2024-03-02T21:34:20;45.40;;;27.95;;
45792;SDS011;31495;42.740;22.908;2024-03-02T21:35:20;44.78;;;28.25;;
45792;SDS011;31495;42.740;22.908;2024-03-02T21:36:20;45.53;;;24.90;;
45792;SDS011;31495;42.740;22.908;2024-03-02T21:37:20;40.70;;;25.88;;
45792;SDS011;31495;42.740;22.908;2024-03-02T21:38:19;47.10;;;28.95;;
45792;SDS011;31495;42.740;22.908;2024-03-02T21:39:19;42.67;;;26.27;;
45792;SDS011;31495;42.740;22.908;2024-03-02T21:40:20;44.17;;;25.55;;
45792;SDS011;31495;42.740;22.908;2024-03-02T21:41:19;37.10;;;22.75;;
45792;SDS011;31495;42.740;22.908;2024-03-02T21:42:19;31.70;;;19.73;;
45792;SDS011;31495;42.740;22.908;2024-03-02T21:43:19;28.63;;;18.88;;
45792;SDS011;31495;42.740;22.908;2024-03-02T21:44:20;34.60;;;19.42;;
45792;SDS011;31495;42.740;22.908;2024-03-02T21:45:19;29.38;;;19.02;;
45792;SDS011;31495;42.740;22.908;2024-03-02T21:46:20;29.92;;;18.77;;
45792;SDS011;31495;42.740;22.908;2024-03-02T21:47:20;30.63;;;19.15;;
45792;SDS011;31495;42.740;22.908;2024-03-02T21:48:20;31.95;;;19.00;;
45792;SDS011;31495;42.740;22.908;2024-03-02T21:50:20;35.30;;;21.98;;
45792;SDS011;31495;42.740;22.908;2024-03-02T21:51:20;35.55;;;21.67;;
45792;SDS011;31495;42.740;22.908;2024-03-02T21:52:20;30.73;;;19.92;;
45792;SDS011;31495;42.740;22.908;2024-03-02T21:53:20;30.98;;;19.95;;
45792;SDS011;31495;42.740;22.908;2024-03-02T21:54:20;27.48;;;18.83;;
45792;SDS011;31495;42.740;22.908;2024-03-02T21:55:20;29.48;;;19.05;;
45792;SDS011;31495;42.740;22.908;2024-03-02T21:56:20;29.42;;;19.33;;
45792;SDS011;31495;42.740;22.908;2024-03-02T21:57:21;29.33;;;19.52;;
45792;SDS011;31495;42.740;22.908;2024-03-02T21:58:21;27.27;;;18.75;;
45792;SDS011;31495;42.740;22.908;2024-03-02T21:59:20;32.28;;;19.77;;
45792;SDS011;31495;42.740;22.908;2024-03-02T22:00:20;38.78;;;23.08;;
45792;SDS011;31495;42.740;22.908;2024-03-02T22:01:20;46.58;;;24.88;;
45792;SDS011;31495;42.740;22.908;2024-03-02T22:02:19;40.00;;;24.25;;
45792;SDS011;31495;42.740;22.908;2024-03-02T22:03:20;40.28;;;23.63;;
45792;SDS011;31495;42.740;22.908;2024-03-02T22:04:20;41.33;;;23.92;;
45792;SDS011;31495;42.740;22.908;2024-03-02T22:05:20;33.00;;;21.17;;
45792;SDS011;31495;42.740;22.908;2024-03-02T22:06:20;33.58;;;19.25;;
45792;SDS011;31495;42.740;22.908;2024-03-02T22:07:19;28.63;;;17.85;;
45792;SDS011;31495;42.740;22.908;2024-03-02T22:08:19;37.63;;;21.80;;
45792;SDS011;31495;42.740;22.908;2024-03-02T22:09:19;32.80;;;20.05;;
45792;SDS011;31495;42.740;22.908;2024-03-02T22:10:20;28.52;;;18.10;;
45792;SDS011;31495;42.740;22.908;2024-03-02T22:11:19;29.00;;;18.90;;
45792;SDS011;31495;42.740;22.908;2024-03-02T22:12:19;33.05;;;19.60;;
45792;SDS011;31495;42.740;22.908;2024-03-02T22:13:20;35.13;;;19.85;;
45792;SDS011;31495;42.740;22.908;2024-03-02T22:14:20;31.52;;;19.48;;
45792;SDS011;31495;42.740;22.908;2024-03-02T22:15:20;31.70;;;18.75;;
45792;SDS011;31495;42.740;22.908;2024-03-02T22:16:20;31.35;;;19.80;;
45792;SDS011;31495;42.740;22.908;2024-03-02T22:17:20;37.35;;;23.63;;
45792;SDS011;31495;42.740;22.908;2024-03-02T22:18:20;36.65;;;23.02;;
45792;SDS011;31495;42.740;22.908;2024-03-02T22:19:20;35.42;;;20.33;;
45792;SDS011;31495;42.740;22.908;2024-03-02T22:20:20;38.70;;;21.40;;
45792;SDS011;31495;42.740;22.908;2024-03-02T22:21:20;43.80;;;23.83;;
45792;SDS011;31495;42.740;22.908;2024-03-02T22:22:20;37.13;;;23.08;;
45792;SDS011;31495;42.740;22.908;2024-03-02T22:23:20;35.63;;;23.42;;
45792;SDS011;31495;42.740;22.908;2024-03-02T22:24:20;36.75;;;23.45;;
45792;SDS011;31495;42.740;22.908;2024-03-02T22:25:22;37.10;;;23.23;;
45792;SDS011;31495;42.740;22.908;2024-03-02T22:26:21;41.03;;;24.42;;
45792;SDS011;31495;42.740;22.908;2024-03-02T22:27:21;39.42;;;23.67;;
45792;SDS011;31495;42.740;22.908;2024-03-02T22:28:20;38.60;;;23.80;;
45792;SDS011;31495;42.740;22.908;2024-03-02T22:29:20;31.88;;;21.60;;
45792;SDS011;31495;42.740;22.908;2024-03-02T22:30:19;34.50;;;22.67;;
45792;SDS011;31495;42.740;22.908;2024-03-02T22:31:20;35.65;;;23.80;;
45792;SDS011;31495;42.740;22.908;2024-03-02T22:32:20;33.47;;;23.20;;
45792;SDS011;31495;42.740;22.908;2024-03-02T22:33:20;34.67;;;24.23;;
45792;SDS011;31495;42.740;22.908;2024-03-02T22:34:20;41.28;;;26.63;;
45792;SDS011;31495;42.740;22.908;2024-03-02T22:35:20;43.72;;;27.20;;
45792;SDS011;31495;42.740;22.908;2024-03-02T22:36:20;46.67;;;29.77;;
45792;SDS011;31495;42.740;22.908;2024-03-02T22:37:19;40.55;;;26.13;;
45792;SDS011;31495;42.740;22.908;2024-03-02T22:38:20;42.88;;;25.65;;
45792;SDS011;31495;42.740;22.908;2024-03-02T22:39:20;36.75;;;23.20;;
45792;SDS011;31495;42.740;22.908;2024-03-02T22:40:20;28.30;;;19.45;;
45792;SDS011;31495;42.740;22.908;2024-03-02T22:41:21;30.85;;;19.20;;
45792;SDS011;31495;42.740;22.908;2024-03-02T22:42:21;30.42;;;18.88;;
45792;SDS011;31495;42.740;22.908;2024-03-02T22:43:20;33.67;;;22.27;;
45792;SDS011;31495;42.740;22.908;2024-03-02T22:44:20;33.00;;;21.40;;
45792;SDS011;31495;42.740;22.908;2024-03-02T22:45:20;30.48;;;19.35;;
45792;SDS011;31495;42.740;22.908;2024-03-02T22:46:20;31.40;;;20.65;;
45792;SDS011;31495;42.740;22.908;2024-03-02T22:47:20;27.27;;;18.65;;
45792;SDS011;31495;42.740;22.908;2024-03-02T22:48:20;28.83;;;19.38;;
45792;SDS011;31495;42.740;22.908;2024-03-02T22:49:20;24.75;;;17.98;;
45792;SDS011;31495;42.740;22.908;2024-03-02T22:50:20;26.98;;;18.50;;
45792;SDS011;31495;42.740;22.908;2024-03-02T22:51:22;33.15;;;20.17;;
45792;SDS011;31495;42.740;22.908;2024-03-02T22:52:25;28.98;;;18.40;;
45792;SDS011;31495;42.740;22.908;2024-03-02T22:53:24;29.55;;;18.08;;
45792;SDS011;31495;42.740;22.908;2024-03-02T22:54:24;31.23;;;18.35;;
45792;SDS011;31495;42.740;22.908;2024-03-02T22:55:23;30.58;;;19.05;;
45792;SDS011;31495;42.740;22.908;2024-03-02T22:56:23;29.45;;;18.27;;
45792;SDS011;31495;42.740;22.908;2024-03-02T22:57:22;28.42;;;18.08;;
45792;SDS011;31495;42.740;22.908;2024-03-02T22:58:22;27.95;;;17.13;;
45792;SDS011;31495;42.740;22.908;2024-03-02T22:59:21;27.48;;;17.42;;
45792;SDS011;31495;42.740;22.908;2024-03-02T23:00:21;26.80;;;17.42;;
45792;SDS011;31495;42.740;22.908;2024-03-02T23:01:33;28.70;;;17.67;;
45792;SDS011;31495;42.740;22.908;2024-03-02T23:02:34;33.97;;;18.00;;
45792;SDS011;31495;42.740;22.908;2024-03-02T23:03:33;28.05;;;18.05;;
45792;SDS011;31495;42.740;22.908;2024-03-02T23:04:33;26.77;;;17.58;;
45792;SDS011;31495;42.740;22.908;2024-03-02T23:05:33;29.20;;;17.77;;
45792;SDS011;31495;42.740;22.908;2024-03-02T23:06:32;30.75;;;18.98;;
45792;SDS011;31495;42.740;22.908;2024-03-02T23:07:31;33.35;;;18.90;;
45792;SDS011;31495;42.740;22.908;2024-03-02T23:08:31;32.15;;;18.58;;
45792;SDS011;31495;42.740;22.908;2024-03-02T23:09:31;31.42;;;18.70;;
45792;SDS011;31495;42.740;22.908;2024-03-02T23:10:30;30.30;;;19.13;;
45792;SDS011;31495;42.740;22.908;2024-03-02T23:11:30;32.08;;;18.50;;
45792;SDS011;31495;42.740;22.908;2024-03-02T23:12:30;30.35;;;18.15;;
45792;SDS011;31495;42.740;22.908;2024-03-02T23:13:29;38.22;;;22.10;;
45792;SDS011;31495;42.740;22.908;2024-03-02T23:14:29;38.42;;;24.08;;
45792;SDS011;31495;42.740;22.908;2024-03-02T23:15:28;38.55;;;25.05;;
45792;SDS011;31495;42.740;22.908;2024-03-02T23:16:28;37.95;;;24.13;;
45792;SDS011;31495;42.740;22.908;2024-03-02T23:17:29;34.95;;;22.20;;
45792;SDS011;31495;42.740;22.908;2024-03-02T23:18:29;37.63;;;23.48;;
45792;SDS011;31495;42.740;22.908;2024-03-02T23:19:28;34.83;;;22.50;;
45792;SDS011;31495;42.740;22.908;2024-03-02T23:20:28;34.90;;;21.88;;
45792;SDS011;31495;42.740;22.908;2024-03-02T23:21:27;33.10;;;22.77;;
45792;SDS011;31495;42.740;22.908;2024-03-02T23:22:26;34.25;;;21.60;;
45792;SDS011;31495;42.740;22.908;2024-03-02T23:23:26;38.70;;;23.55;;
45792;SDS011;31495;42.740;22.908;2024-03-02T23:24:25;35.60;;;23.02;;
45792;SDS011;31495;42.740;22.908;2024-03-02T23:25:25;33.97;;;22.58;;
45792;SDS011;31495;42.740;22.908;2024-03-02T23:26:24;36.90;;;23.88;;
45792;SDS011;31495;42.740;22.908;2024-03-02T23:27:24;39.78;;;23.65;;
45792;SDS011;31495;42.740;22.908;2024-03-02T23:28:23;37.00;;;22.92;;
45792;SDS011;31495;42.740;22.908;2024-03-02T23:29:22;37.28;;;23.63;;
45792;SDS011;31495;42.740;22.908;2024-03-02T23:30:22;41.03;;;26.30;;
45792;SDS011;31495;42.740;22.908;2024-03-02T23:31:23;45.75;;;27.13;;
45792;SDS011;31495;42.740;22.908;2024-03-02T23:32:23;40.50;;;25.83;;
45792;SDS011;31495;42.740;22.908;2024-03-02T23:33:22;38.33;;;23.38;;
45792;SDS011;31495;42.740;22.908;2024-03-02T23:34:22;34.45;;;21.02;;
45792;SDS011;31495;42.740;22.908;2024-03-02T23:35:22;34.53;;;20.65;;
45792;SDS011;31495;42.740;22.908;2024-03-02T23:36:22;32.53;;;19.63;;
45792;SDS011;31495;42.740;22.908;2024-03-02T23:37:22;28.98;;;20.13;;
45792;SDS011;31495;42.740;22.908;2024-03-02T23:38:22;28.23;;;17.70;;
45792;SDS011;31495;42.740;22.908;2024-03-02T23:39:22;28.40;;;18.08;;
45792;SDS011;31495;42.740;22.908;2024-03-02T23:40:56;25.35;;;15.20;;
45792;SDS011;31495;42.740;22.908;2024-03-02T23:42:13;19.25;;;13.00;;
45792;SDS011;31495;42.740;22.908;2024-03-02T23:43:13;25.38;;;15.45;;
45792;SDS011;31495;42.740;22.908;2024-03-02T23:44:13;22.88;;;15.75;;
45792;SDS011;31495;42.740;22.908;2024-03-02T23:45:13;24.42;;;15.60;;
45792;SDS011;31495;42.740;22.908;2024-03-02T23:46:12;29.67;;;18.13;;
45792;SDS011;31495;42.740;22.908;2024-03-02T23:47:11;26.42;;;17.08;;
45792;SDS011;31495;42.740;22.908;2024-03-02T23:48:11;37.53;;;18.50;;
45792;SDS011;31495;42.740;22.908;2024-03-02T23:49:10;25.80;;;16.55;;
45792;SDS011;31495;42.740;22.908;2024-03-02T23:50:10;24.98;;;16.65;;
45792;SDS011;31495;42.740;22.908;2024-03-02T23:51:09;29.00;;;17.20;;
45792;SDS011;31495;42.740;22.908;2024-03-02T23:52:09;29.60;;;17.95;;
45792;SDS011;31495;42.740;22.908;2024-03-02T23:53:08;27.88;;;17.15;;
45792;SDS011;31495;42.740;22.908;2024-03-02T23:54:07;28.20;;;17.50;;
45792;SDS011;31495;42.740;22.908;2024-03-02T23:55:07;25.48;;;17.20;;
45792;SDS011;31495;42.740;22.908;2024-03-02T23:56:08;29.23;;;18.08;;
45792;SDS011;31495;42.740;22.908;2024-03-02T23:57:10;29.52;;;18.73;;
45792;SDS011;31495;42.740;22.908;2024-03-02T23:58:09;25.08;;;16.75;;
45792;SDS011;31495;42.740;22.908;2024-03-02T23:59:08;27.92;;;16.23;;
